createdAt,value
2019-04-28T00:00:41.130Z,55.50
2019-04-28T00:05:42.585Z,55.50
2019-04-28T00:10:43.774Z,55.60
2019-04-28T00:15:45.058Z,55.90
2019-04-28T00:20:46.296Z,55.70
2019-04-28T00:25:47.693Z,55.90
2019-04-28T00:30:48.903Z,55.80
2019-04-28T00:35:51.566Z,55.70
2019-04-28T00:40:53.074Z,55.70
2019-04-28T00:45:54.289Z,55.60
2019-04-28T00:50:55.587Z,55.20
2019-04-28T00:55:56.942Z,55.50
2019-04-28T01:00:58.162Z,55.50
2019-04-28T01:05:59.466Z,55.90
2019-04-28T01:11:01.819Z,55.80
2019-04-28T01:16:03.253Z,56.10
2019-04-28T01:21:04.466Z,56.10
2019-04-28T01:26:05.759Z,56.10
2019-04-28T01:31:07.056Z,56.70
2019-04-28T01:36:10.272Z,57.30
2019-04-28T01:41:11.311Z,56.30
2019-04-28T01:46:12.691Z,57.00
2019-04-28T01:51:13.903Z,56.80
2019-04-28T01:56:15.210Z,56.70
2019-04-28T02:01:16.606Z,56.90
2019-04-28T02:06:19.741Z,57.10
2019-04-28T02:11:21.008Z,57.50
2019-04-28T02:16:22.226Z,57.70
2019-04-28T02:21:23.590Z,58.20
2019-04-28T02:26:24.940Z,58.10
2019-04-28T02:31:26.289Z,58.70
2019-04-28T02:36:27.491Z,59.00
2019-04-28T02:41:30.659Z,59.30
2019-04-28T02:46:31.804Z,60.00
2019-04-28T02:51:33.180Z,59.80
2019-04-28T02:56:34.403Z,60.00
2019-04-28T03:01:35.711Z,60.00
2019-04-28T03:06:37.082Z,60.20
2019-04-28T03:11:42.763Z,60.10
2019-04-28T03:16:41.470Z,60.60
2019-04-28T03:21:43.160Z,60.90
2019-04-28T03:26:44.512Z,61.30
2019-04-28T03:32:10.153Z,61.00
2019-04-28T03:36:48.765Z,61.10
2019-04-28T03:41:50.324Z,62.20
2019-04-28T03:46:51.695Z,63.40
2019-04-28T03:51:52.917Z,62.60
2019-04-28T03:56:54.293Z,63.00
2019-04-28T04:01:59.782Z,64.00
2019-04-28T04:07:01.420Z,64.40
2019-04-28T04:12:03.642Z,64.40
2019-04-28T04:17:05.079Z,64.70
2019-04-28T04:22:06.287Z,65.40
2019-04-28T04:27:07.581Z,65.00
2019-04-28T04:32:15.861Z,65.40
2019-04-28T04:37:12.634Z,65.30
2019-04-28T04:42:14.210Z,66.00
2019-04-28T04:47:15.417Z,65.00
2019-04-28T04:52:16.720Z,66.00
2019-04-28T04:57:17.932Z,65.40
2019-04-28T05:02:29.597Z,64.50
2019-04-28T05:07:22.241Z,64.20
2019-04-28T05:12:23.463Z,65.20
2019-04-28T05:17:24.831Z,64.50
2019-04-28T05:22:26.052Z,65.50
2019-04-28T05:27:27.412Z,65.70
2019-04-28T05:32:41.613Z,66.00
2019-04-28T05:37:31.721Z,65.80
2019-04-28T05:42:33.108Z,65.50
2019-04-28T05:47:34.517Z,65.90
2019-04-28T05:52:35.804Z,65.70
2019-04-28T05:57:37.008Z,65.20
2019-04-28T06:02:39.683Z,64.70
2019-04-28T06:07:41.325Z,64.90
2019-04-28T06:12:42.532Z,65.10
2019-04-28T06:17:43.834Z,65.30
2019-04-28T06:22:45.042Z,65.70
2019-04-28T06:27:46.896Z,66.00
2019-04-28T06:32:48.188Z,66.70
2019-04-28T06:37:49.544Z,66.70
2019-04-28T06:42:50.915Z,66.10
2019-04-28T06:47:52.132Z,66.60
2019-04-28T06:52:53.488Z,66.40
2019-04-28T06:57:54.702Z,65.20
2019-04-28T07:02:55.993Z,64.60
2019-04-28T07:07:57.290Z,65.40
2019-04-28T07:12:58.499Z,66.10
2019-04-28T07:17:59.780Z,66.20
2019-04-28T07:23:01.323Z,66.40
2019-04-28T07:28:02.515Z,66.10
2019-04-28T07:33:04.133Z,66.10
2019-04-28T07:38:05.419Z,66.00
2019-04-28T07:43:06.634Z,65.80
2019-04-28T07:48:07.933Z,64.70
2019-04-28T07:53:09.141Z,64.60
2019-04-28T07:58:10.417Z,65.10
2019-04-28T08:03:11.618Z,64.10
2019-04-28T08:08:12.916Z,63.80
2019-04-28T08:13:14.121Z,62.00
2019-04-28T08:18:15.495Z,61.50
2019-04-28T08:23:16.789Z,61.30
2019-04-28T08:28:17.998Z,60.60
2019-04-28T08:33:19.365Z,61.60
2019-04-28T08:38:20.657Z,60.00
2019-04-28T08:43:21.893Z,60.40
2019-04-28T08:48:23.191Z,60.90
2019-04-28T08:53:24.497Z,60.00
2019-04-28T08:58:25.722Z,60.30
2019-04-28T09:03:27.050Z,61.50
2019-04-28T09:08:28.423Z,59.00
2019-04-28T09:13:29.733Z,59.30
2019-04-28T09:18:31.118Z,58.70
2019-04-28T09:23:32.410Z,58.80
2019-04-28T09:28:33.620Z,59.90
2019-04-28T09:33:35.012Z,59.90
2019-04-28T09:38:36.386Z,59.80
2019-04-28T09:43:37.731Z,57.80
2019-04-28T09:48:38.943Z,59.20
2019-04-28T09:53:40.259Z,58.30
2019-04-28T09:58:41.576Z,58.80
2019-04-28T10:03:42.865Z,58.30
2019-04-28T10:08:44.093Z,56.70
2019-04-28T10:13:45.416Z,55.30
2019-04-28T10:18:46.704Z,56.70
2019-04-28T10:23:47.939Z,57.80
2019-04-28T10:28:49.333Z,57.70
2019-04-28T10:33:50.732Z,55.80
2019-04-28T10:38:52.060Z,56.90
2019-04-28T10:43:53.395Z,56.00
2019-04-28T10:48:54.691Z,54.90
2019-04-28T10:53:55.998Z,55.60
2019-04-28T10:58:57.377Z,54.10
2019-04-28T11:03:58.757Z,53.30
2019-04-28T11:09:00.113Z,52.90
2019-04-28T11:14:01.413Z,53.20
2019-04-28T11:19:02.866Z,51.00
2019-04-28T11:24:04.159Z,51.30
2019-04-28T11:29:05.870Z,49.70
2019-04-28T11:34:07.179Z,50.40
2019-04-28T11:39:08.484Z,50.50
2019-04-28T11:44:09.776Z,50.30
2019-04-28T11:49:11.071Z,50.90
2019-04-28T11:54:12.430Z,50.50
2019-04-28T11:59:13.735Z,50.70
2019-04-28T12:04:15.097Z,51.10
2019-04-28T12:09:16.382Z,51.70
2019-04-28T12:14:17.697Z,50.90
2019-04-28T12:19:19.056Z,51.10
2019-04-28T12:24:20.373Z,49.30
2019-04-28T12:29:21.782Z,49.30
2019-04-28T12:34:23.417Z,49.90
2019-04-28T12:39:24.719Z,50.80
2019-04-28T12:44:26.078Z,48.80
2019-04-28T12:49:27.385Z,48.30
2019-04-28T12:54:28.749Z,48.00
2019-04-28T12:59:30.065Z,48.60
2019-04-28T13:04:31.435Z,48.10
2019-04-28T13:09:32.731Z,48.50
2019-04-28T13:14:34.040Z,51.00
2019-04-28T13:19:35.875Z,52.00
2019-04-28T13:24:37.198Z,51.40
2019-04-28T13:29:39.528Z,51.20
2019-04-28T13:34:40.864Z,51.30
2019-04-28T13:39:42.158Z,51.10
2019-04-28T13:44:43.511Z,50.30
2019-04-28T13:49:44.886Z,48.10
2019-04-28T13:54:46.263Z,45.30
2019-04-28T13:59:47.665Z,42.60
2019-04-28T14:04:48.994Z,41.60
2019-04-28T14:09:50.348Z,43.20
2019-04-28T14:14:51.693Z,43.20
2019-04-28T14:19:53.085Z,42.00
2019-04-28T14:24:54.802Z,43.40
2019-04-28T14:29:56.097Z,41.30
2019-04-28T14:34:57.512Z,42.20
2019-04-28T14:39:58.858Z,41.90
2019-04-28T14:45:00.224Z,42.00
2019-04-28T14:50:02.982Z,43.20
2019-04-28T14:55:04.531Z,39.80
2019-04-28T15:00:05.896Z,41.60
2019-04-28T15:05:07.228Z,43.10
2019-04-28T15:10:08.647Z,44.60
2019-04-28T15:15:10.040Z,46.20
2019-04-28T15:20:11.386Z,48.10
2019-04-28T15:25:12.702Z,49.60
2019-04-28T15:30:14.064Z,49.40
2019-04-28T15:35:15.676Z,49.60
2019-04-28T15:40:17.037Z,49.30
2019-04-28T15:45:18.335Z,49.90
2019-04-28T15:50:19.620Z,49.40
2019-04-28T15:55:20.983Z,49.70
2019-04-28T16:00:22.360Z,50.20
2019-04-28T16:05:23.969Z,51.10
2019-04-28T16:10:25.355Z,50.10
2019-04-28T16:15:26.649Z,50.40
2019-04-28T16:20:29.753Z,51.60
2019-04-28T16:25:31.264Z,51.60
2019-04-28T16:30:32.852Z,51.70
2019-04-28T16:35:34.179Z,51.20
2019-04-28T16:40:35.510Z,49.00
2019-04-28T16:45:36.821Z,43.00
2019-04-28T16:50:38.194Z,40.60
2019-04-28T16:55:39.571Z,41.20
2019-04-28T17:00:40.988Z,46.90
2019-04-28T17:05:42.272Z,49.10
2019-04-28T17:10:43.659Z,49.90
2019-04-28T17:15:45.031Z,51.30
2019-04-28T17:20:46.413Z,52.10
2019-04-28T17:25:47.687Z,51.70
2019-04-28T17:30:48.987Z,48.80
2019-04-28T17:35:50.282Z,46.70
2019-04-28T17:40:51.599Z,46.60
2019-04-28T17:45:52.972Z,47.30
2019-04-28T17:50:54.538Z,49.60
2019-04-28T17:55:55.857Z,50.40
2019-04-28T18:00:57.189Z,51.50
2019-04-28T18:05:58.509Z,52.50
2019-04-28T18:10:59.822Z,53.00
2019-04-28T18:16:01.142Z,53.80
2019-04-28T18:21:02.433Z,54.90
2019-04-28T18:26:03.731Z,54.60
2019-04-28T18:31:05.019Z,54.90
2019-04-28T18:36:06.766Z,55.50
2019-04-28T18:41:08.192Z,56.10
2019-04-28T18:46:09.478Z,56.30
2019-04-28T18:51:10.793Z,56.70
2019-04-28T18:56:12.103Z,57.10
2019-04-28T19:01:13.472Z,57.30
2019-04-28T19:06:14.877Z,57.60
2019-04-28T19:11:16.280Z,58.20
2019-04-28T19:16:17.579Z,59.00
2019-04-28T19:21:18.886Z,59.20
2019-04-28T19:26:20.206Z,59.50
2019-04-28T19:31:21.526Z,59.90
2019-04-28T19:36:22.917Z,59.70
2019-04-28T19:41:24.248Z,60.00
2019-04-28T19:46:25.568Z,60.00
2019-04-28T19:51:32.157Z,60.10
2019-04-28T19:56:29.876Z,58.80
2019-04-28T20:01:31.183Z,59.20
2019-04-28T20:06:32.512Z,59.30
2019-04-28T20:11:33.819Z,59.70
2019-04-28T20:16:35.195Z,58.70
2019-04-28T20:21:36.923Z,58.70
2019-04-28T20:26:38.284Z,58.70
2019-04-28T20:31:39.603Z,59.60
2019-04-28T20:36:40.907Z,59.60
2019-04-28T20:41:42.225Z,59.90
2019-04-28T20:46:43.595Z,60.40
2019-04-28T20:51:44.965Z,59.90
2019-04-28T20:56:46.251Z,60.80
2019-04-28T21:01:47.915Z,60.90
2019-04-28T21:06:49.297Z,61.40
2019-04-28T21:11:50.679Z,60.10
2019-04-28T21:16:52.035Z,60.40
2019-04-28T21:21:53.329Z,60.60
2019-04-28T21:26:54.557Z,60.50
2019-04-28T21:31:56.204Z,60.80
2019-04-28T21:36:57.495Z,60.50
2019-04-28T21:41:58.710Z,60.70
2019-04-28T21:47:00.016Z,60.60
2019-04-28T21:52:01.382Z,61.90
2019-04-28T21:57:02.691Z,62.40
2019-04-28T22:02:04.023Z,62.40
2019-04-28T22:07:05.335Z,63.30
2019-04-28T22:12:06.697Z,61.50
2019-04-28T22:17:07.914Z,61.10
2019-04-28T22:22:09.197Z,61.20
2019-04-28T22:27:10.539Z,60.30
2019-04-28T22:32:11.856Z,60.70
2019-04-28T22:37:13.066Z,61.10
2019-04-28T22:42:14.360Z,61.40
2019-04-28T22:47:15.980Z,61.90
2019-04-28T22:52:17.272Z,61.40
2019-04-28T22:57:18.654Z,61.80
2019-04-28T23:02:20.034Z,62.30
2019-04-28T23:07:21.317Z,61.00
2019-04-28T23:12:22.529Z,61.00
2019-04-28T23:17:23.809Z,62.30
2019-04-28T23:22:25.104Z,62.10
2019-04-28T23:27:26.407Z,61.80
2019-04-28T23:32:27.694Z,61.60
2019-04-28T23:37:28.896Z,62.00
2019-04-28T23:42:30.220Z,61.30
2019-04-28T23:47:31.558Z,61.40
2019-04-28T23:52:33.320Z,62.00
2019-04-28T23:57:34.618Z,61.20
